sensor_id;sensor_type;location;lat;lon;timestamp;P1;durP1;ratioP1;P2;durP2;ratioP2
61640;SDS011;62201;49.966;8.342;2023-07-09T00:01:50;8.02;;;3.90;;
61640;SDS011;62201;49.966;8.342;2023-07-09T00:04:16;10.73;;;3.90;;
61640;SDS011;62201;49.966;8.342;2023-07-09T00:06:41;4.95;;;3.28;;
61640;SDS011;62201;49.966;8.342;2023-07-09T00:09:14;10.55;;;3.72;;
61640;SDS011;62201;49.966;8.342;2023-07-09T00:11:41;7.47;;;3.63;;
61640;SDS011;62201;49.966;8.342;2023-07-09T00:14:09;8.75;;;3.60;;
61640;SDS011;62201;49.966;8.342;2023-07-09T00:16:35;7.43;;;3.70;;
61640;SDS011;62201;49.966;8.342;2023-07-09T00:19:02;10.20;;;3.70;;
61640;SDS011;62201;49.966;8.342;2023-07-09T00:21:27;12.60;;;3.70;;
61640;SDS011;62201;49.966;8.342;2023-07-09T00:23:58;10.43;;;3.47;;
61640;SDS011;62201;49.966;8.342;2023-07-09T00:26:29;5.55;;;3.58;;
61640;SDS011;62201;49.966;8.342;2023-07-09T00:28:55;5.28;;;3.60;;
61640;SDS011;62201;49.966;8.342;2023-07-09T00:31:21;8.60;;;3.30;;
61640;SDS011;62201;49.966;8.342;2023-07-09T00:33:48;9.90;;;3.90;;
61640;SDS011;62201;49.966;8.342;2023-07-09T00:36:14;10.50;;;3.70;;
61640;SDS011;62201;49.966;8.342;2023-07-09T00:38:41;8.43;;;3.67;;
61640;SDS011;62201;49.966;8.342;2023-07-09T00:41:19;8.13;;;3.65;;
61640;SDS011;62201;49.966;8.342;2023-07-09T00:43:47;8.00;;;3.45;;
61640;SDS011;62201;49.966;8.342;2023-07-09T00:47:14;13.13;;;4.13;;
61640;SDS011;62201;49.966;8.342;2023-07-09T00:49:11;9.02;;;4.88;;
61640;SDS011;62201;49.966;8.342;2023-07-09T00:51:42;8.98;;;4.90;;
61640;SDS011;62201;49.966;8.342;2023-07-09T00:54:18;14.27;;;4.90;;
61640;SDS011;62201;49.966;8.342;2023-07-09T00:56:55;9.18;;;4.57;;
61640;SDS011;62201;49.966;8.342;2023-07-09T00:59:25;9.32;;;4.97;;
61640;SDS011;62201;49.966;8.342;2023-07-09T01:01:54;10.45;;;5.00;;
61640;SDS011;62201;49.966;8.342;2023-07-09T01:04:21;11.48;;;4.93;;
61640;SDS011;62201;49.966;8.342;2023-07-09T01:06:53;9.15;;;5.10;;
61640;SDS011;62201;49.966;8.342;2023-07-09T01:09:20;15.50;;;5.38;;
61640;SDS011;62201;49.966;8.342;2023-07-09T01:11:47;11.15;;;4.60;;
61640;SDS011;62201;49.966;8.342;2023-07-09T01:14:13;9.35;;;5.60;;
61640;SDS011;62201;49.966;8.342;2023-07-09T01:16:49;9.73;;;5.28;;
61640;SDS011;62201;49.966;8.342;2023-07-09T01:19:22;16.35;;;5.53;;
61640;SDS011;62201;49.966;8.342;2023-07-09T01:21:51;11.32;;;5.30;;
61640;SDS011;62201;49.966;8.342;2023-07-09T01:27:10;11.32;;;5.72;;
61640;SDS011;62201;49.966;8.342;2023-07-09T01:29:36;11.88;;;5.90;;
61640;SDS011;62201;49.966;8.342;2023-07-09T01:32:02;11.23;;;5.90;;
61640;SDS011;62201;49.966;8.342;2023-07-09T01:34:28;10.30;;;6.10;;
61640;SDS011;62201;49.966;8.342;2023-07-09T01:36:55;10.63;;;6.13;;
61640;SDS011;62201;49.966;8.342;2023-07-09T01:39:21;12.45;;;5.53;;
61640;SDS011;62201;49.966;8.342;2023-07-09T01:41:46;11.55;;;5.63;;
61640;SDS011;62201;49.966;8.342;2023-07-09T01:44:12;8.70;;;6.05;;
61640;SDS011;62201;49.966;8.342;2023-07-09T01:46:38;13.82;;;6.00;;
61640;SDS011;62201;49.966;8.342;2023-07-09T01:49:04;12.60;;;5.40;;
61640;SDS011;62201;49.966;8.342;2023-07-09T01:51:32;10.80;;;6.20;;
61640;SDS011;62201;49.966;8.342;2023-07-09T01:53:58;7.95;;;5.15;;
61640;SDS011;62201;49.966;8.342;2023-07-09T01:56:24;11.90;;;5.57;;
61640;SDS011;62201;49.966;8.342;2023-07-09T01:58:50;13.57;;;5.60;;
61640;SDS011;62201;49.966;8.342;2023-07-09T02:01:15;7.82;;;4.93;;
61640;SDS011;62201;49.966;8.342;2023-07-09T02:03:41;10.18;;;5.35;;
61640;SDS011;62201;49.966;8.342;2023-07-09T02:06:07;8.43;;;4.97;;
61640;SDS011;62201;49.966;8.342;2023-07-09T02:08:34;7.88;;;4.80;;
61640;SDS011;62201;49.966;8.342;2023-07-09T02:11:00;11.43;;;5.43;;
61640;SDS011;62201;49.966;8.342;2023-07-09T02:13:26;9.07;;;4.82;;
61640;SDS011;62201;49.966;8.342;2023-07-09T02:15:51;7.82;;;4.82;;
61640;SDS011;62201;49.966;8.342;2023-07-09T02:18:17;8.93;;;4.80;;
61640;SDS011;62201;49.966;8.342;2023-07-09T02:20:42;10.30;;;4.95;;
61640;SDS011;62201;49.966;8.342;2023-07-09T02:23:07;10.05;;;5.40;;
61640;SDS011;62201;49.966;8.342;2023-07-09T02:25:33;10.07;;;5.30;;
61640;SDS011;62201;49.966;8.342;2023-07-09T02:27:59;10.50;;;5.38;;
61640;SDS011;62201;49.966;8.342;2023-07-09T02:30:24;10.27;;;5.70;;
61640;SDS011;62201;49.966;8.342;2023-07-09T02:32:50;8.50;;;4.38;;
61640;SDS011;62201;49.966;8.342;2023-07-09T02:35:15;12.65;;;4.78;;
61640;SDS011;62201;49.966;8.342;2023-07-09T02:37:41;9.95;;;4.55;;
61640;SDS011;62201;49.966;8.342;2023-07-09T02:40:07;10.80;;;4.88;;
61640;SDS011;62201;49.966;8.342;2023-07-09T02:42:34;10.40;;;4.93;;
61640;SDS011;62201;49.966;8.342;2023-07-09T02:45:02;11.65;;;5.05;;
61640;SDS011;62201;49.966;8.342;2023-07-09T02:47:29;12.93;;;4.82;;
61640;SDS011;62201;49.966;8.342;2023-07-09T02:49:54;9.75;;;4.78;;
61640;SDS011;62201;49.966;8.342;2023-07-09T02:52:19;11.15;;;4.97;;
61640;SDS011;62201;49.966;8.342;2023-07-09T02:54:45;8.00;;;5.10;;
61640;SDS011;62201;49.966;8.342;2023-07-09T02:57:11;7.93;;;4.75;;
61640;SDS011;62201;49.966;8.342;2023-07-09T02:59:36;8.40;;;4.35;;
61640;SDS011;62201;49.966;8.342;2023-07-09T03:02:02;14.23;;;4.95;;
61640;SDS011;62201;49.966;8.342;2023-07-09T03:04:28;10.05;;;4.43;;
61640;SDS011;62201;49.966;8.342;2023-07-09T03:06:53;8.70;;;4.43;;
61640;SDS011;62201;49.966;8.342;2023-07-09T03:09:19;10.48;;;4.05;;
61640;SDS011;62201;49.966;8.342;2023-07-09T03:11:45;13.60;;;4.63;;
61640;SDS011;62201;49.966;8.342;2023-07-09T03:14:10;12.20;;;4.07;;
61640;SDS011;62201;49.966;8.342;2023-07-09T03:16:36;15.05;;;4.40;;
61640;SDS011;62201;49.966;8.342;2023-07-09T03:19:02;7.80;;;4.18;;
61640;SDS011;62201;49.966;8.342;2023-07-09T03:21:29;9.07;;;4.75;;
61640;SDS011;62201;49.966;8.342;2023-07-09T03:23:55;9.65;;;4.18;;
61640;SDS011;62201;49.966;8.342;2023-07-09T03:26:20;11.15;;;4.55;;
61640;SDS011;62201;49.966;8.342;2023-07-09T03:28:46;8.98;;;3.95;;
61640;SDS011;62201;49.966;8.342;2023-07-09T03:31:11;10.50;;;3.90;;
61640;SDS011;62201;49.966;8.342;2023-07-09T03:33:37;9.40;;;4.40;;
61640;SDS011;62201;49.966;8.342;2023-07-09T03:36:03;7.25;;;4.35;;
61640;SDS011;62201;49.966;8.342;2023-07-09T03:38:29;13.07;;;4.70;;
61640;SDS011;62201;49.966;8.342;2023-07-09T03:40:55;8.85;;;4.00;;
61640;SDS011;62201;49.966;8.342;2023-07-09T03:43:21;9.48;;;3.65;;
61640;SDS011;62201;49.966;8.342;2023-07-09T03:45:47;10.00;;;4.25;;
61640;SDS011;62201;49.966;8.342;2023-07-09T03:48:14;8.95;;;4.07;;
61640;SDS011;62201;49.966;8.342;2023-07-09T03:50:41;11.15;;;4.47;;
61640;SDS011;62201;49.966;8.342;2023-07-09T03:53:08;13.23;;;4.55;;
61640;SDS011;62201;49.966;8.342;2023-07-09T03:55:34;11.60;;;4.47;;
61640;SDS011;62201;49.966;8.342;2023-07-09T03:57:59;10.00;;;4.82;;
61640;SDS011;62201;49.966;8.342;2023-07-09T04:00:25;7.57;;;5.07;;
61640;SDS011;62201;49.966;8.342;2023-07-09T04:02:51;8.20;;;4.40;;
61640;SDS011;62201;49.966;8.342;2023-07-09T04:05:17;9.25;;;4.93;;
61640;SDS011;62201;49.966;8.342;2023-07-09T04:07:42;8.57;;;4.25;;
61640;SDS011;62201;49.966;8.342;2023-07-09T04:10:08;9.93;;;4.78;;
61640;SDS011;62201;49.966;8.342;2023-07-09T04:12:34;8.48;;;4.10;;
61640;SDS011;62201;49.966;8.342;2023-07-09T04:15:01;7.38;;;4.20;;
61640;SDS011;62201;49.966;8.342;2023-07-09T04:17:30;6.88;;;4.60;;
61640;SDS011;62201;49.966;8.342;2023-07-09T04:19:56;7.82;;;3.92;;
61640;SDS011;62201;49.966;8.342;2023-07-09T04:22:22;9.63;;;4.28;;
61640;SDS011;62201;49.966;8.342;2023-07-09T04:24:47;10.10;;;4.47;;
61640;SDS011;62201;49.966;8.342;2023-07-09T04:27:12;11.13;;;4.63;;
61640;SDS011;62201;49.966;8.342;2023-07-09T04:29:39;11.23;;;4.68;;
61640;SDS011;62201;49.966;8.342;2023-07-09T04:32:05;8.23;;;4.63;;
61640;SDS011;62201;49.966;8.342;2023-07-09T04:34:31;7.63;;;4.65;;
61640;SDS011;62201;49.966;8.342;2023-07-09T04:36:57;12.80;;;4.80;;
61640;SDS011;62201;49.966;8.342;2023-07-09T04:39:23;7.85;;;4.88;;
61640;SDS011;62201;49.966;8.342;2023-07-09T04:41:48;12.35;;;4.90;;
61640;SDS011;62201;49.966;8.342;2023-07-09T04:44:14;8.45;;;4.60;;
61640;SDS011;62201;49.966;8.342;2023-07-09T04:46:39;8.50;;;4.72;;
61640;SDS011;62201;49.966;8.342;2023-07-09T04:49:05;8.73;;;4.93;;
61640;SDS011;62201;49.966;8.342;2023-07-09T04:51:30;13.90;;;5.38;;
61640;SDS011;62201;49.966;8.342;2023-07-09T04:53:56;12.50;;;5.72;;
61640;SDS011;62201;49.966;8.342;2023-07-09T04:56:22;12.90;;;5.50;;
61640;SDS011;62201;49.966;8.342;2023-07-09T04:58:47;10.02;;;6.03;;
61640;SDS011;62201;49.966;8.342;2023-07-09T05:01:13;13.43;;;5.90;;
61640;SDS011;62201;49.966;8.342;2023-07-09T05:03:38;9.48;;;5.78;;
61640;SDS011;62201;49.966;8.342;2023-07-09T05:06:04;10.52;;;5.32;;
61640;SDS011;62201;49.966;8.342;2023-07-09T05:08:30;10.70;;;5.55;;
61640;SDS011;62201;49.966;8.342;2023-07-09T05:10:56;8.75;;;4.90;;
61640;SDS011;62201;49.966;8.342;2023-07-09T05:13:22;10.20;;;5.45;;
61640;SDS011;62201;49.966;8.342;2023-07-09T05:15:49;13.07;;;5.53;;
61640;SDS011;62201;49.966;8.342;2023-07-09T05:18:15;10.43;;;5.60;;
61640;SDS011;62201;49.966;8.342;2023-07-09T05:20:41;12.25;;;5.30;;
61640;SDS011;62201;49.966;8.342;2023-07-09T05:23:08;11.00;;;5.30;;
61640;SDS011;62201;49.966;8.342;2023-07-09T05:25:34;12.18;;;4.95;;
61640;SDS011;62201;49.966;8.342;2023-07-09T05:28:00;8.95;;;5.13;;
61640;SDS011;62201;49.966;8.342;2023-07-09T05:30:25;10.93;;;4.85;;
61640;SDS011;62201;49.966;8.342;2023-07-09T05:32:51;14.63;;;4.90;;
61640;SDS011;62201;49.966;8.342;2023-07-09T05:35:18;8.85;;;4.90;;
61640;SDS011;62201;49.966;8.342;2023-07-09T05:37:44;14.05;;;4.60;;
61640;SDS011;62201;49.966;8.342;2023-07-09T05:40:09;12.10;;;5.32;;
61640;SDS011;62201;49.966;8.342;2023-07-09T05:42:35;6.43;;;4.32;;
61640;SDS011;62201;49.966;8.342;2023-07-09T05:45:00;13.48;;;4.22;;
61640;SDS011;62201;49.966;8.342;2023-07-09T05:47:26;11.27;;;4.75;;
61640;SDS011;62201;49.966;8.342;2023-07-09T05:49:52;10.45;;;4.43;;
61640;SDS011;62201;49.966;8.342;2023-07-09T05:52:19;11.75;;;4.40;;
61640;SDS011;62201;49.966;8.342;2023-07-09T05:54:45;10.00;;;4.80;;
61640;SDS011;62201;49.966;8.342;2023-07-09T05:57:14;11.65;;;4.63;;
61640;SDS011;62201;49.966;8.342;2023-07-09T05:59:40;11.88;;;4.15;;
61640;SDS011;62201;49.966;8.342;2023-07-09T06:02:07;8.60;;;4.53;;
61640;SDS011;62201;49.966;8.342;2023-07-09T06:04:36;13.20;;;4.32;;
61640;SDS011;62201;49.966;8.342;2023-07-09T06:07:02;10.63;;;4.65;;
61640;SDS011;62201;49.966;8.342;2023-07-09T06:09:28;11.25;;;4.18;;
61640;SDS011;62201;49.966;8.342;2023-07-09T06:11:54;8.75;;;4.50;;
61640;SDS011;62201;49.966;8.342;2023-07-09T06:14:20;11.43;;;4.90;;
61640;SDS011;62201;49.966;8.342;2023-07-09T06:16:45;10.35;;;4.53;;
61640;SDS011;62201;49.966;8.342;2023-07-09T06:19:11;6.82;;;4.07;;
61640;SDS011;62201;49.966;8.342;2023-07-09T06:21:36;9.73;;;4.63;;
61640;SDS011;62201;49.966;8.342;2023-07-09T06:24:01;8.65;;;4.30;;
61640;SDS011;62201;49.966;8.342;2023-07-09T06:26:27;9.90;;;4.40;;
61640;SDS011;62201;49.966;8.342;2023-07-09T06:28:52;6.75;;;4.20;;
61640;SDS011;62201;49.966;8.342;2023-07-09T06:31:18;10.38;;;4.28;;
61640;SDS011;62201;49.966;8.342;2023-07-09T06:33:45;8.05;;;4.18;;
61640;SDS011;62201;49.966;8.342;2023-07-09T06:36:12;13.85;;;5.30;;
61640;SDS011;62201;49.966;8.342;2023-07-09T06:38:37;11.55;;;4.38;;
61640;SDS011;62201;49.966;8.342;2023-07-09T06:41:03;7.90;;;4.65;;
61640;SDS011;62201;49.966;8.342;2023-07-09T06:43:28;11.73;;;4.45;;
61640;SDS011;62201;49.966;8.342;2023-07-09T06:45:55;7.65;;;3.92;;
61640;SDS011;62201;49.966;8.342;2023-07-09T06:48:23;15.18;;;4.93;;
61640;SDS011;62201;49.966;8.342;2023-07-09T06:50:49;7.93;;;4.30;;
61640;SDS011;62201;49.966;8.342;2023-07-09T06:53:15;14.35;;;4.60;;
61640;SDS011;62201;49.966;8.342;2023-07-09T06:55:41;7.85;;;3.83;;
61640;SDS011;62201;49.966;8.342;2023-07-09T06:58:07;8.68;;;4.55;;
61640;SDS011;62201;49.966;8.342;2023-07-09T07:00:33;8.77;;;3.97;;
61640;SDS011;62201;49.966;8.342;2023-07-09T07:03:02;10.80;;;4.22;;
61640;SDS011;62201;49.966;8.342;2023-07-09T07:05:28;10.38;;;3.65;;
61640;SDS011;62201;49.966;8.342;2023-07-09T07:07:53;8.15;;;3.92;;
61640;SDS011;62201;49.966;8.342;2023-07-09T07:10:19;8.30;;;3.60;;
61640;SDS011;62201;49.966;8.342;2023-07-09T07:12:46;10.25;;;3.90;;
61640;SDS011;62201;49.966;8.342;2023-07-09T07:15:13;7.25;;;3.40;;
61640;SDS011;62201;49.966;8.342;2023-07-09T07:17:40;9.10;;;3.60;;
61640;SDS011;62201;49.966;8.342;2023-07-09T07:20:07;7.88;;;3.85;;
61640;SDS011;62201;49.966;8.342;2023-07-09T07:22:34;9.30;;;3.65;;
61640;SDS011;62201;49.966;8.342;2023-07-09T07:25:00;11.25;;;4.32;;
61640;SDS011;62201;49.966;8.342;2023-07-09T07:27:25;5.55;;;3.88;;
61640;SDS011;62201;49.966;8.342;2023-07-09T07:29:52;7.22;;;4.03;;
61640;SDS011;62201;49.966;8.342;2023-07-09T07:32:18;7.30;;;3.47;;
61640;SDS011;62201;49.966;8.342;2023-07-09T07:34:44;7.70;;;3.58;;
61640;SDS011;62201;49.966;8.342;2023-07-09T07:37:09;8.60;;;3.33;;
61640;SDS011;62201;49.966;8.342;2023-07-09T07:39:35;7.90;;;3.50;;
61640;SDS011;62201;49.966;8.342;2023-07-09T07:42:00;7.00;;;3.58;;
61640;SDS011;62201;49.966;8.342;2023-07-09T07:44:26;6.45;;;3.20;;
61640;SDS011;62201;49.966;8.342;2023-07-09T07:46:51;9.88;;;3.58;;
61640;SDS011;62201;49.966;8.342;2023-07-09T07:49:16;8.77;;;3.55;;
61640;SDS011;62201;49.966;8.342;2023-07-09T07:51:42;7.75;;;3.63;;
61640;SDS011;62201;49.966;8.342;2023-07-09T07:54:09;8.40;;;3.58;;
61640;SDS011;62201;49.966;8.342;2023-07-09T07:56:35;5.57;;;3.30;;
61640;SDS011;62201;49.966;8.342;2023-07-09T07:59:01;9.00;;;3.95;;
61640;SDS011;62201;49.966;8.342;2023-07-09T08:01:27;6.50;;;4.05;;
61640;SDS011;62201;49.966;8.342;2023-07-09T08:03:53;6.63;;;3.75;;
61640;SDS011;62201;49.966;8.342;2023-07-09T08:06:18;9.10;;;3.70;;
61640;SDS011;62201;49.966;8.342;2023-07-09T08:08:44;7.72;;;3.88;;
61640;SDS011;62201;49.966;8.342;2023-07-09T08:11:09;6.72;;;3.63;;
61640;SDS011;62201;49.966;8.342;2023-07-09T08:13:35;6.38;;;3.60;;
61640;SDS011;62201;49.966;8.342;2023-07-09T08:16:01;5.78;;;3.40;;
61640;SDS011;62201;49.966;8.342;2023-07-09T08:18:27;7.53;;;3.80;;
61640;SDS011;62201;49.966;8.342;2023-07-09T08:20:52;10.60;;;3.50;;
61640;SDS011;62201;49.966;8.342;2023-07-09T08:23:17;9.80;;;3.70;;
61640;SDS011;62201;49.966;8.342;2023-07-09T08:25:43;10.43;;;3.95;;
61640;SDS011;62201;49.966;8.342;2023-07-09T08:28:08;6.13;;;3.67;;
61640;SDS011;62201;49.966;8.342;2023-07-09T08:30:34;7.95;;;4.10;;
61640;SDS011;62201;49.966;8.342;2023-07-09T08:33:00;9.27;;;4.03;;
61640;SDS011;62201;49.966;8.342;2023-07-09T08:35:26;8.13;;;4.38;;
61640;SDS011;62201;49.966;8.342;2023-07-09T08:37:51;9.30;;;4.03;;
61640;SDS011;62201;49.966;8.342;2023-07-09T08:40:17;11.00;;;4.60;;
61640;SDS011;62201;49.966;8.342;2023-07-09T08:42:43;7.85;;;4.15;;
61640;SDS011;62201;49.966;8.342;2023-07-09T08:48:05;10.65;;;4.68;;
61640;SDS011;62201;49.966;8.342;2023-07-09T08:50:38;8.90;;;4.68;;
61640;SDS011;62201;49.966;8.342;2023-07-09T08:55:59;9.50;;;4.60;;
61640;SDS011;62201;49.966;8.342;2023-07-09T08:58:26;8.65;;;4.50;;
61640;SDS011;62201;49.966;8.342;2023-07-09T09:00:56;11.20;;;5.90;;
61640;SDS011;62201;49.966;8.342;2023-07-09T09:03:28;7.95;;;5.03;;
61640;SDS011;62201;49.966;8.342;2023-07-09T09:06:00;9.02;;;4.40;;
61640;SDS011;62201;49.966;8.342;2023-07-09T09:11:24;7.65;;;4.53;;
61640;SDS011;62201;49.966;8.342;2023-07-09T09:13:58;7.13;;;4.30;;
61640;SDS011;62201;49.966;8.342;2023-07-09T09:16:32;7.70;;;4.50;;
61640;SDS011;62201;49.966;8.342;2023-07-09T09:19:00;7.82;;;4.40;;
61640;SDS011;62201;49.966;8.342;2023-07-09T09:21:33;14.90;;;4.38;;
61640;SDS011;62201;49.966;8.342;2023-07-09T09:24:10;7.40;;;4.20;;
61640;SDS011;62201;49.966;8.342;2023-07-09T09:26:43;6.60;;;3.95;;
61640;SDS011;62201;49.966;8.342;2023-07-09T09:29:10;9.80;;;4.50;;
61640;SDS011;62201;49.966;8.342;2023-07-09T09:31:36;13.52;;;4.78;;
61640;SDS011;62201;49.966;8.342;2023-07-09T09:34:02;12.70;;;4.50;;
61640;SDS011;62201;49.966;8.342;2023-07-09T09:36:27;10.48;;;4.18;;
61640;SDS011;62201;49.966;8.342;2023-07-09T09:38:53;16.52;;;3.95;;
61640;SDS011;62201;49.966;8.342;2023-07-09T09:41:22;6.57;;;3.80;;
61640;SDS011;62201;49.966;8.342;2023-07-09T09:43:53;8.48;;;4.22;;
61640;SDS011;62201;49.966;8.342;2023-07-09T09:46:20;8.95;;;4.00;;
61640;SDS011;62201;49.966;8.342;2023-07-09T09:48:48;7.10;;;3.92;;
61640;SDS011;62201;49.966;8.342;2023-07-09T09:51:16;8.70;;;3.95;;
61640;SDS011;62201;49.966;8.342;2023-07-09T09:53:49;5.82;;;3.83;;
61640;SDS011;62201;49.966;8.342;2023-07-09T09:56:24;8.93;;;3.65;;
61640;SDS011;62201;49.966;8.342;2023-07-09T09:58:56;6.93;;;4.07;;
61640;SDS011;62201;49.966;8.342;2023-07-09T10:01:33;13.10;;;4.13;;
61640;SDS011;62201;49.966;8.342;2023-07-09T10:04:00;10.52;;;3.83;;
61640;SDS011;62201;49.966;8.342;2023-07-09T10:06:44;5.65;;;3.80;;
61640;SDS011;62201;49.966;8.342;2023-07-09T10:15:37;6.32;;;3.60;;
61640;SDS011;62201;49.966;8.342;2023-07-09T10:18:32;5.93;;;3.78;;
61640;SDS011;62201;49.966;8.342;2023-07-09T10:23:41;8.77;;;3.60;;
61640;SDS011;62201;49.966;8.342;2023-07-09T10:26:30;7.07;;;3.60;;
61640;SDS011;62201;49.966;8.342;2023-07-09T10:32:09;8.45;;;3.70;;
61640;SDS011;62201;49.966;8.342;2023-07-09T10:40:09;7.40;;;3.60;;
61640;SDS011;62201;49.966;8.342;2023-07-09T10:42:42;6.32;;;3.35;;
61640;SDS011;62201;49.966;8.342;2023-07-09T10:45:12;7.40;;;3.53;;
61640;SDS011;62201;49.966;8.342;2023-07-09T10:47:41;7.00;;;3.65;;
61640;SDS011;62201;49.966;8.342;2023-07-09T10:50:12;7.05;;;3.60;;
61640;SDS011;62201;49.966;8.342;2023-07-09T10:52:44;7.40;;;3.00;;
61640;SDS011;62201;49.966;8.342;2023-07-09T11:01:14;9.95;;;3.53;;
61640;SDS011;62201;49.966;8.342;2023-07-09T11:03:44;7.32;;;3.47;;
61640;SDS011;62201;49.966;8.342;2023-07-09T11:06:17;4.60;;;3.40;;
61640;SDS011;62201;49.966;8.342;2023-07-09T11:09:06;6.72;;;3.22;;
61640;SDS011;62201;49.966;8.342;2023-07-09T11:11:54;6.95;;;3.33;;
61640;SDS011;62201;49.966;8.342;2023-07-09T11:15:25;9.95;;;3.65;;
61640;SDS011;62201;49.966;8.342;2023-07-09T11:17:19;5.18;;;3.05;;
61640;SDS011;62201;49.966;8.342;2023-07-09T11:19:47;7.63;;;3.45;;
61640;SDS011;62201;49.966;8.342;2023-07-09T11:22:26;8.68;;;3.38;;
61640;SDS011;62201;49.966;8.342;2023-07-09T11:25:15;8.88;;;3.47;;
61640;SDS011;62201;49.966;8.342;2023-07-09T11:27:54;7.70;;;3.25;;
61640;SDS011;62201;49.966;8.342;2023-07-09T11:30:28;7.13;;;3.30;;
61640;SDS011;62201;49.966;8.342;2023-07-09T11:33:02;5.78;;;3.47;;
61640;SDS011;62201;49.966;8.342;2023-07-09T11:35:29;6.28;;;3.35;;
61640;SDS011;62201;49.966;8.342;2023-07-09T11:38:19;8.65;;;3.50;;
61640;SDS011;62201;49.966;8.342;2023-07-09T11:40:47;6.13;;;3.40;;
61640;SDS011;62201;49.966;8.342;2023-07-09T11:43:26;7.53;;;3.15;;
61640;SDS011;62201;49.966;8.342;2023-07-09T11:46:22;6.50;;;2.67;;
61640;SDS011;62201;49.966;8.342;2023-07-09T11:48:51;5.90;;;3.45;;
61640;SDS011;62201;49.966;8.342;2023-07-09T11:52:03;4.55;;;2.97;;
61640;SDS011;62201;49.966;8.342;2023-07-09T11:54:14;5.05;;;3.05;;
61640;SDS011;62201;49.966;8.342;2023-07-09T11:56:40;9.18;;;3.53;;
61640;SDS011;62201;49.966;8.342;2023-07-09T11:59:06;4.78;;;3.08;;
61640;SDS011;62201;49.966;8.342;2023-07-09T12:01:45;5.18;;;3.40;;
61640;SDS011;62201;49.966;8.342;2023-07-09T12:04:14;7.10;;;3.28;;
61640;SDS011;62201;49.966;8.342;2023-07-09T12:06:41;5.80;;;3.10;;
61640;SDS011;62201;49.966;8.342;2023-07-09T12:09:19;6.82;;;3.13;;
61640;SDS011;62201;49.966;8.342;2023-07-09T12:11:47;7.10;;;2.92;;
61640;SDS011;62201;49.966;8.342;2023-07-09T12:14:15;7.03;;;3.08;;
61640;SDS011;62201;49.966;8.342;2023-07-09T12:16:49;6.57;;;3.05;;
61640;SDS011;62201;49.966;8.342;2023-07-09T12:19:16;12.30;;;2.63;;
61640;SDS011;62201;49.966;8.342;2023-07-09T12:21:45;5.20;;;2.45;;
61640;SDS011;62201;49.966;8.342;2023-07-09T12:24:58;7.55;;;2.78;;
61640;SDS011;62201;49.966;8.342;2023-07-09T12:29:42;7.03;;;3.28;;
61640;SDS011;62201;49.966;8.342;2023-07-09T12:32:12;8.02;;;3.20;;
61640;SDS011;62201;49.966;8.342;2023-07-09T12:34:40;5.10;;;2.90;;
61640;SDS011;62201;49.966;8.342;2023-07-09T12:37:08;9.95;;;2.97;;
61640;SDS011;62201;49.966;8.342;2023-07-09T12:39:38;5.15;;;3.03;;
61640;SDS011;62201;49.966;8.342;2023-07-09T12:42:03;7.95;;;3.25;;
61640;SDS011;62201;49.966;8.342;2023-07-09T12:44:34;5.05;;;3.15;;
61640;SDS011;62201;49.966;8.342;2023-07-09T12:47:01;6.38;;;2.90;;
61640;SDS011;62201;49.966;8.342;2023-07-09T12:49:28;5.90;;;2.85;;
61640;SDS011;62201;49.966;8.342;2023-07-09T12:51:55;7.85;;;3.38;;
61640;SDS011;62201;49.966;8.342;2023-07-09T12:54:22;5.72;;;3.33;;
61640;SDS011;62201;49.966;8.342;2023-07-09T12:56:52;5.78;;;3.53;;
61640;SDS011;62201;49.966;8.342;2023-07-09T12:59:22;7.87;;;3.50;;
61640;SDS011;62201;49.966;8.342;2023-07-09T13:04:20;7.05;;;3.60;;
61640;SDS011;62201;49.966;8.342;2023-07-09T13:06:46;9.00;;;3.30;;
61640;SDS011;62201;49.966;8.342;2023-07-09T13:09:21;5.32;;;3.30;;
61640;SDS011;62201;49.966;8.342;2023-07-09T13:11:47;9.98;;;3.17;;
61640;SDS011;62201;49.966;8.342;2023-07-09T13:14:27;6.68;;;3.50;;
61640;SDS011;62201;49.966;8.342;2023-07-09T13:17:04;6.47;;;3.30;;
61640;SDS011;62201;49.966;8.342;2023-07-09T13:19:31;7.47;;;3.17;;
61640;SDS011;62201;49.966;8.342;2023-07-09T13:21:57;7.32;;;2.80;;
61640;SDS011;62201;49.966;8.342;2023-07-09T13:24:24;11.15;;;3.80;;
61640;SDS011;62201;49.966;8.342;2023-07-09T13:26:51;5.60;;;3.33;;
61640;SDS011;62201;49.966;8.342;2023-07-09T13:29:17;6.00;;;3.30;;
61640;SDS011;62201;49.966;8.342;2023-07-09T13:31:44;6.38;;;3.38;;
61640;SDS011;62201;49.966;8.342;2023-07-09T13:36:49;7.05;;;3.17;;
61640;SDS011;62201;49.966;8.342;2023-07-09T13:39:16;6.63;;;3.50;;
61640;SDS011;62201;49.966;8.342;2023-07-09T13:41:45;11.77;;;3.20;;
61640;SDS011;62201;49.966;8.342;2023-07-09T13:44:13;9.35;;;3.67;;
61640;SDS011;62201;49.966;8.342;2023-07-09T13:46:41;7.07;;;3.30;;
61640;SDS011;62201;49.966;8.342;2023-07-09T13:49:10;5.03;;;3.30;;
61640;SDS011;62201;49.966;8.342;2023-07-09T13:51:39;7.53;;;3.28;;
61640;SDS011;62201;49.966;8.342;2023-07-09T13:54:22;10.23;;;3.55;;
61640;SDS011;62201;49.966;8.342;2023-07-09T13:56:50;6.15;;;3.90;;
61640;SDS011;62201;49.966;8.342;2023-07-09T13:59:17;8.80;;;3.40;;
61640;SDS011;62201;49.966;8.342;2023-07-09T14:01:49;5.68;;;3.53;;
61640;SDS011;62201;49.966;8.342;2023-07-09T14:04:16;6.18;;;3.13;;
61640;SDS011;62201;49.966;8.342;2023-07-09T14:06:43;8.02;;;3.67;;
61640;SDS011;62201;49.966;8.342;2023-07-09T14:09:10;9.27;;;3.47;;
61640;SDS011;62201;49.966;8.342;2023-07-09T14:11:44;8.00;;;3.30;;
61640;SDS011;62201;49.966;8.342;2023-07-09T14:16:45;6.63;;;3.20;;
61640;SDS011;62201;49.966;8.342;2023-07-09T14:19:13;6.15;;;3.10;;
61640;SDS011;62201;49.966;8.342;2023-07-09T14:21:40;7.10;;;3.15;;
61640;SDS011;62201;49.966;8.342;2023-07-09T14:26:51;5.15;;;3.17;;
61640;SDS011;62201;49.966;8.342;2023-07-09T14:29:17;7.47;;;2.80;;
61640;SDS011;62201;49.966;8.342;2023-07-09T14:31:44;6.32;;;2.85;;
61640;SDS011;62201;49.966;8.342;2023-07-09T14:34:18;5.38;;;3.08;;
61640;SDS011;62201;49.966;8.342;2023-07-09T14:36:47;5.38;;;3.10;;
61640;SDS011;62201;49.966;8.342;2023-07-09T14:39:16;7.25;;;3.05;;
61640;SDS011;62201;49.966;8.342;2023-07-09T14:41:42;6.28;;;3.08;;
61640;SDS011;62201;49.966;8.342;2023-07-09T14:44:15;8.40;;;3.45;;
61640;SDS011;62201;49.966;8.342;2023-07-09T14:46:50;4.65;;;2.88;;
61640;SDS011;62201;49.966;8.342;2023-07-09T14:49:17;11.00;;;3.53;;
61640;SDS011;62201;49.966;8.342;2023-07-09T14:51:43;6.10;;;2.80;;
61640;SDS011;62201;49.966;8.342;2023-07-09T14:56:54;7.13;;;2.90;;
61640;SDS011;62201;49.966;8.342;2023-07-09T14:59:22;7.28;;;3.47;;
61640;SDS011;62201;49.966;8.342;2023-07-09T15:01:48;8.05;;;3.20;;
61640;SDS011;62201;49.966;8.342;2023-07-09T15:06:52;6.30;;;2.95;;
61640;SDS011;62201;49.966;8.342;2023-07-09T15:09:19;3.47;;;2.60;;
61640;SDS011;62201;49.966;8.342;2023-07-09T15:11:46;6.70;;;3.10;;
61640;SDS011;62201;49.966;8.342;2023-07-09T15:14:14;6.90;;;3.38;;
61640;SDS011;62201;49.966;8.342;2023-07-09T15:16:40;5.97;;;2.75;;
61640;SDS011;62201;49.966;8.342;2023-07-09T15:19:14;5.03;;;2.70;;
61640;SDS011;62201;49.966;8.342;2023-07-09T15:21:41;6.78;;;3.30;;
61640;SDS011;62201;49.966;8.342;2023-07-09T15:24:19;7.85;;;3.05;;
61640;SDS011;62201;49.966;8.342;2023-07-09T15:26:48;8.70;;;3.00;;
61640;SDS011;62201;49.966;8.342;2023-07-09T15:29:17;11.32;;;3.30;;
61640;SDS011;62201;49.966;8.342;2023-07-09T15:31:43;4.93;;;3.15;;
61640;SDS011;62201;49.966;8.342;2023-07-09T15:34:09;7.95;;;2.88;;
61640;SDS011;62201;49.966;8.342;2023-07-09T15:36:35;8.30;;;3.20;;
61640;SDS011;62201;49.966;8.342;2023-07-09T15:39:00;7.95;;;3.00;;
61640;SDS011;62201;49.966;8.342;2023-07-09T15:41:26;10.13;;;3.40;;
61640;SDS011;62201;49.966;8.342;2023-07-09T15:43:51;7.93;;;3.35;;